Time;durP1;ratioP1;P1;durP2;ratioP2;P2;SDS_P1;SDS_P2;PMS_P1;PMS_P2;Temp;Humidity;BMP_temperature;BMP_pressure;BME280_temperature;BME280_humidity;BME280_pressure;Samples;Min_cycle;Max_cycle;Signal;HPM_P1;HPM_P2
2023/07/29 00:01:36;;;;;;;2.92;2.72;;;;;;;18.78;87.51;98135.06;5038127;28;20131;-76
2023/07/29 00:04:02;;;;;;;5.05;3.53;;;;;;;18.76;87.33;98131.88;5040400;28;20032;-76
2023/07/29 00:06:28;;;;;;;6.95;3.28;;;;;;;18.65;87.41;98120.56;5037977;28;20493;-77
2023/07/29 00:08:53;;;;;;;4.32;2.75;;;;;;;18.63;87.55;98119.31;5021487;28;20040;-77
2023/07/29 00:11:18;;;;;;;5.40;3.22;;;;;;;18.56;88.14;98124.41;5038186;28;20029;-77
2023/07/29 00:13:44;;;;;;;4.60;3.85;;;;;;;18.45;87.59;98110.41;5035946;28;20037;-76
2023/07/29 00:16:09;;;;;;;3.10;2.90;;;;;;;18.63;87.50;98111.19;5034087;28;20041;-77
2023/07/29 00:18:35;;;;;;;6.05;3.35;;;;;;;18.38;88.03;98115.44;5034041;28;20025;-76
2023/07/29 00:21:00;;;;;;;12.32;4.03;;;;;;;18.59;87.19;98110.22;5037962;28;20443;-76
2023/07/29 00:23:25;;;;;;;3.58;2.83;;;;;;;18.58;87.25;98103.25;5035975;28;20065;-77
2023/07/29 00:25:51;;;;;;;4.10;2.55;;;;;;;18.50;87.45;98112.16;5040928;28;20033;-76
2023/07/29 00:28:16;;;;;;;2.45;2.25;;;;;;;18.57;87.30;98102.44;5041130;28;20037;-76
2023/07/29 00:30:41;;;;;;;3.75;2.30;;;;;;;18.48;87.76;98114.34;5049225;28;20036;-76
2023/07/29 00:33:07;;;;;;;10.45;2.83;;;;;;;18.43;87.86;98101.78;5043743;28;20597;-75
2023/07/29 00:35:33;;;;;;;3.55;2.08;;;;;;;18.40;87.79;98104.31;5046299;28;20030;-76
2023/07/29 00:37:58;;;;;;;3.90;2.97;;;;;;;18.38;87.81;98114.66;5046502;28;20025;-77
2023/07/29 00:40:23;;;;;;;3.83;2.70;;;;;;;18.39;88.03;98106.22;5047817;28;20409;-76
2023/07/29 00:42:50;;;;;;;5.47;3.15;;;;;;;18.44;87.63;98100.69;5047948;28;20093;-78
2023/07/29 00:45:16;;;;;;;4.03;2.38;;;;;;;18.50;87.23;98107.53;5042812;28;20033;-77
2023/07/29 00:47:42;;;;;;;6.55;2.70;;;;;;;18.39;87.64;98103.50;5041967;28;20114;-77
2023/07/29 00:50:10;;;;;;;2.70;2.50;;;;;;;18.47;87.32;98105.47;5054027;28;20037;-77
2023/07/29 00:52:35;;;;;;;3.05;2.40;;;;;;;18.40;87.10;98104.31;5050300;28;20025;-76
2023/07/29 00:55:01;;;;;;;4.32;2.85;;;;;;;18.37;87.44;98100.34;5051297;28;20036;-78
2023/07/29 00:57:29;;;;;;;3.58;3.10;;;;;;;18.26;88.19;98096.34;5051911;28;20032;-78
2023/07/29 00:59:55;;;;;;;3.58;2.35;;;;;;;18.35;87.74;98099.84;5045180;28;20038;-78
2023/07/29 01:02:21;;;;;;;6.10;3.17;;;;;;;18.37;88.03;98086.81;5052836;28;20393;-78
2023/07/29 01:04:53;;;;;;;3.42;2.70;;;;;;;18.40;87.91;98094.31;5021465;28;20048;-77
2023/07/29 01:07:24;;;;;;;5.10;2.65;;;;;;;18.43;88.14;98087.47;5051894;28;20543;-76
2023/07/29 01:10:00;;;;;;;3.17;2.53;;;;;;;18.51;88.07;98081.28;5053395;28;20033;-77
2023/07/29 01:12:37;;;;;;;4.57;2.45;;;;;;;18.48;88.13;98085.44;5051597;28;20043;-77
2023/07/29 01:15:16;;;;;;;3.05;2.83;;;;;;;18.48;88.17;98084.63;5046450;28;20025;-77
2023/07/29 01:18:05;;;;;;;3.80;3.30;;;;;;;18.27;88.37;98073.63;5046613;28;20417;-77
2023/07/29 01:20:33;;;;;;;4.72;3.00;;;;;;;18.37;88.45;98076.00;5051614;28;20064;-77
2023/07/29 01:22:58;;;;;;;4.25;2.97;;;;;;;18.27;88.31;98079.03;5048100;28;20051;-77
2023/07/29 01:25:24;;;;;;;5.45;2.95;;;;;;;18.15;88.70;98083.47;5053755;28;20477;-78
2023/07/29 01:27:53;;;;;;;4.22;3.83;;;;;;;17.88;90.17;98074.53;5034470;28;20472;-77
2023/07/29 01:30:28;;;;;;;4.20;2.80;;;;;;;17.94;90.75;98075.97;5047779;28;20525;-76
2023/07/29 01:33:33;;;;;;;4.20;3.80;;;;;;;17.79;91.42;98084.50;5051540;28;20044;-76
2023/07/29 01:36:06;;;;;;;3.97;3.10;;;;;;;17.81;91.83;98068.00;5048035;28;20033;-77
2023/07/29 01:38:38;;;;;;;5.13;2.97;;;;;;;18.10;90.42;98084.44;5050189;28;20167;-77
2023/07/29 01:41:07;;;;;;;3.00;2.80;;;;;;;18.23;89.32;98082.69;5049871;28;20029;-78
2023/07/29 01:43:33;;;;;;;2.78;2.40;;;;;;;18.20;89.57;98080.59;5050204;28;20033;-75
2023/07/29 01:46:00;;;;;;;4.95;3.42;;;;;;;18.31;89.68;98090.78;5051466;28;20025;-75
2023/07/29 01:48:27;;;;;;;3.90;3.60;;;;;;;18.35;89.55;98080.13;5051337;28;20032;-77
2023/07/29 01:50:52;;;;;;;7.63;4.28;;;;;;;18.47;89.26;98096.56;5051452;28;20040;-77
2023/07/29 01:53:18;;;;;;;4.07;2.88;;;;;;;18.41;89.32;98092.41;5053004;28;20029;-76
2023/07/29 01:55:44;;;;;;;3.80;3.33;;;;;;;18.33;89.78;98088.56;5050986;28;20025;-77
2023/07/29 01:58:10;;;;;;;4.68;3.40;;;;;;;18.37;90.15;98077.94;5046751;28;20486;-77
2023/07/29 02:00:36;;;;;;;4.97;2.88;;;;;;;18.34;90.01;98084.78;5050693;28;20083;-76
2023/07/29 02:03:01;;;;;;;7.85;3.40;;;;;;;18.42;89.85;98080.47;5051147;28;20108;-75
2023/07/29 02:05:26;;;;;;;11.57;4.43;;;;;;;18.23;90.12;98072.69;5042746;28;20033;-75
2023/07/29 02:07:52;;;;;;;6.95;3.13;;;;;;;18.41;90.15;98065.38;5050791;28;20481;-77
2023/07/29 02:10:17;;;;;;;5.07;3.03;;;;;;;18.39;89.93;98079.19;5050427;28;20068;-76
2023/07/29 02:12:43;;;;;;;8.07;3.85;;;;;;;18.38;90.17;98072.22;5044615;28;20492;-76
2023/07/29 02:15:09;;;;;;;8.23;3.10;;;;;;;18.48;89.82;98071.13;5033694;28;20519;-77
2023/07/29 02:17:34;;;;;;;5.22;3.42;;;;;;;18.35;89.86;98058.53;5030506;28;20068;-77
2023/07/29 02:20:00;;;;;;;6.38;3.60;;;;;;;18.41;90.18;98079.66;5037396;28;20029;-77
2023/07/29 02:22:25;;;;;;;5.55;3.72;;;;;;;18.34;89.95;98079.38;5049429;28;20033;-76
2023/07/29 02:24:50;;;;;;;7.93;3.83;;;;;;;18.32;90.35;98072.69;5052629;28;20473;-77
2023/07/29 02:27:16;;;;;;;6.45;3.28;;;;;;;18.27;90.36;98070.94;5048161;28;20032;-77
2023/07/29 02:29:41;;;;;;;7.40;2.78;;;;;;;18.34;90.21;98079.38;5045657;28;20029;-77
2023/07/29 02:32:06;;;;;;;3.35;3.05;;;;;;;18.28;90.67;98086.00;5049960;28;20120;-75
2023/07/29 02:34:32;;;;;;;7.28;3.22;;;;;;;18.14;91.52;98076.47;5046275;28;20046;-75
2023/07/29 02:36:57;;;;;;;8.30;3.15;;;;;;;17.99;92.26;98066.94;5050202;28;20076;-76
2023/07/29 02:39:23;;;;;;;2.80;2.38;;;;;;;18.07;92.44;98070.75;5050604;28;20488;-76
2023/07/29 02:41:49;;;;;;;4.30;3.10;;;;;;;17.98;92.72;98063.44;5049692;28;20020;-77
2023/07/29 02:44:15;;;;;;;3.22;2.92;;;;;;;18.05;92.39;98054.06;5052402;28;20493;-76
2023/07/29 02:46:40;;;;;;;2.83;2.60;;;;;;;18.08;92.50;98056.13;5049283;28;20033;-77
2023/07/29 02:49:06;;;;;;;4.93;4.15;;;;;;;18.06;92.73;98052.97;5050198;28;20037;-76
2023/07/29 02:51:31;;;;;;;5.22;2.67;;;;;;;18.08;92.00;98054.25;5049180;28;20029;-76
2023/07/29 02:53:56;;;;;;;4.20;2.88;;;;;;;18.06;92.04;98048.38;5052203;28;20047;-76
2023/07/29 02:56:22;;;;;;;2.90;2.70;;;;;;;18.04;92.47;98047.09;5052616;28;20028;-77
2023/07/29 02:58:47;;;;;;;3.35;3.05;;;;;;;18.09;91.96;98052.31;5045876;28;20099;-76
2023/07/29 03:01:13;;;;;;;5.50;2.60;;;;;;;18.10;91.66;98049.31;5041958;28;20037;-76
2023/07/29 03:03:39;;;;;;;3.92;2.80;;;;;;;18.13;91.70;98050.59;5046080;28;20079;-77
2023/07/29 03:06:09;;;;;;;4.10;3.50;;;;;;;18.07;91.83;98046.44;5047606;28;20087;-77
2023/07/29 03:08:36;;;;;;;3.30;2.67;;;;;;;18.16;91.47;98039.94;5048401;28;20037;-76
2023/07/29 03:11:13;;;;;;;2.70;2.50;;;;;;;18.15;91.70;98038.34;5048484;28;20393;-76
2023/07/29 03:13:39;;;;;;;3.80;2.63;;;;;;;18.13;91.69;98042.50;5049471;28;20033;-77
2023/07/29 03:16:09;;;;;;;9.30;3.28;;;;;;;18.09;91.66;98028.00;5045118;28;21852;-76
2023/07/29 03:18:34;;;;;;;7.35;2.80;;;;;;;18.16;91.33;98033.72;5049806;28;20041;-76
2023/07/29 03:21:00;;;;;;;4.28;3.10;;;;;;;18.14;91.40;98025.97;5043336;28;20124;-77
2023/07/29 03:23:25;;;;;;;3.75;3.45;;;;;;;17.97;92.08;98021.31;5047704;28;20029;-76
2023/07/29 03:25:53;;;;;;;4.18;3.60;;;;;;;17.97;91.83;98023.25;5047626;28;20426;-77
2023/07/29 03:28:18;;;;;;;5.47;4.30;;;;;;;17.93;92.02;98025.00;5049894;28;20124;-76
2023/07/29 03:30:43;;;;;;;3.50;3.20;;;;;;;17.96;92.05;98027.03;5047816;28;20111;-76
2023/07/29 03:33:09;;;;;;;6.40;3.35;;;;;;;18.10;90.92;98025.00;5045400;28;20098;-76
2023/07/29 03:35:34;;;;;;;4.80;2.80;;;;;;;18.07;90.99;98011.31;5042977;28;20032;-77
2023/07/29 03:37:59;;;;;;;8.60;3.92;;;;;;;17.77;91.40;98015.75;5042005;28;20043;-78
2023/07/29 03:40:25;;;;;;;9.30;3.58;;;;;;;18.00;91.18;98008.31;5049806;28;20032;-78
2023/07/29 03:42:50;;;;;;;3.53;3.00;;;;;;;18.14;90.49;98011.66;5052295;28;20043;-78
2023/07/29 03:45:16;;;;;;;5.03;3.60;;;;;;;17.96;91.07;98005.44;5047383;28;20037;-78
2023/07/29 03:47:41;;;;;;;3.20;2.92;;;;;;;18.03;90.81;98008.47;5048229;28;20021;-77
2023/07/29 03:50:06;;;;;;;5.45;2.97;;;;;;;18.14;90.91;97998.16;5044440;28;20047;-76
2023/07/29 03:52:32;;;;;;;3.28;2.97;;;;;;;18.14;91.23;98004.34;5045262;28;20029;-77
2023/07/29 03:54:57;;;;;;;4.57;3.05;;;;;;;18.15;90.47;97995.13;5046815;28;20052;-76
2023/07/29 03:57:22;;;;;;;4.68;3.55;;;;;;;18.14;90.99;98000.84;5045590;28;20048;-77
2023/07/29 03:59:48;;;;;;;2.85;2.65;;;;;;;18.18;91.31;98001.78;5048617;28;20482;-77
2023/07/29 04:02:14;;;;;;;4.38;3.08;;;;;;;18.08;90.91;97994.81;5052739;28;20036;-77
2023/07/29 04:04:41;;;;;;;5.93;3.05;;;;;;;18.13;91.61;98001.97;5050396;28;20272;-77
2023/07/29 04:07:07;;;;;;;5.95;3.38;;;;;;;18.12;91.49;97995.78;5042724;28;20062;-77
2023/07/29 04:09:32;;;;;;;5.90;3.08;;;;;;;18.15;91.71;97999.75;5050133;28;20166;-77
2023/07/29 04:11:58;;;;;;;5.88;3.10;;;;;;;18.13;91.94;98000.03;5048638;28;20629;-78
2023/07/29 04:14:24;;;;;;;5.57;3.45;;;;;;;18.14;91.66;98007.06;5045935;28;20075;-76
2023/07/29 04:16:49;;;;;;;4.05;2.95;;;;;;;18.14;92.23;98017.84;5049811;28;20458;-76
2023/07/29 04:19:14;;;;;;;5.30;2.97;;;;;;;18.05;92.71;98008.16;5050837;28;20507;-76
2023/07/29 04:21:40;;;;;;;3.85;2.95;;;;;;;18.16;92.32;98012.94;5037565;28;20029;-77
2023/07/29 04:24:05;;;;;;;3.63;3.33;;;;;;;18.13;92.76;98010.84;5050623;28;20382;-76
2023/07/29 04:26:31;;;;;;;4.10;3.42;;;;;;;18.13;92.71;98012.78;5053455;28;20033;-78
2023/07/29 04:28:58;;;;;;;10.43;3.63;;;;;;;18.13;92.81;98010.06;5048538;28;20074;-79
2023/07/29 04:31:23;;;;;;;7.13;3.85;;;;;;;17.96;94.57;97987.34;5022946;28;20029;-80
2023/07/29 04:33:48;;;;;;;6.82;3.50;;;;;;;18.09;93.14;97985.59;5060329;28;20056;-77
2023/07/29 04:36:14;;;;;;;3.70;3.22;;;;;;;18.16;92.81;97987.81;5053352;28;20036;-78
2023/07/29 04:38:39;;;;;;;7.57;3.42;;;;;;;18.28;92.47;97983.34;5052888;28;20048;-78
2023/07/29 04:41:06;;;;;;;9.23;3.55;;;;;;;18.28;92.57;97987.97;5051451;28;20033;-76
2023/07/29 04:43:32;;;;;;;3.63;3.10;;;;;;;18.28;92.50;97998.78;5046061;28;20029;-76
2023/07/29 04:45:58;;;;;;;7.65;3.17;;;;;;;18.26;92.95;97999.09;5041851;28;20039;-75
2023/07/29 04:48:23;;;;;;;4.55;2.80;;;;;;;18.26;92.67;97988.28;5052003;28;20393;-77
2023/07/29 04:50:48;;;;;;;4.15;2.78;;;;;;;18.29;92.60;97986.84;5050884;28;20078;-77
2023/07/29 04:53:14;;;;;;;6.30;3.13;;;;;;;18.35;92.41;97994.47;5050921;28;20039;-77
2023/07/29 04:55:42;;;;;;;4.38;3.47;;;;;;;18.31;92.85;97984.63;5052534;28;20092;-76
2023/07/29 04:58:08;;;;;;;5.13;3.08;;;;;;;18.17;92.94;97987.53;5046425;28;20033;-75
2023/07/29 05:00:33;;;;;;;2.92;2.72;;;;;;;18.26;93.02;97996.38;5026591;28;20148;-75
2023/07/29 05:02:59;;;;;;;8.57;3.70;;;;;;;18.27;92.99;97997.19;5048044;28;20477;-76
2023/07/29 05:05:24;;;;;;;5.28;3.67;;;;;;;18.24;93.04;97995.16;5050975;28;20040;-76
2023/07/29 05:07:49;;;;;;;3.90;3.42;;;;;;;18.23;93.20;97997.03;5053487;28;20052;-76
2023/07/29 05:10:15;;;;;;;3.50;3.20;;;;;;;18.29;92.83;97981.44;5049104;28;20025;-76
2023/07/29 05:12:40;;;;;;;2.95;2.75;;;;;;;18.30;93.05;97981.16;5052991;28;20033;-75
2023/07/29 05:15:06;;;;;;;4.63;3.35;;;;;;;18.37;92.57;97981.44;5047753;28;20060;-76
2023/07/29 05:17:31;;;;;;;4.72;3.40;;;;;;;18.20;93.73;97980.66;5051740;28;20031;-76
2023/07/29 05:19:57;;;;;;;4.18;3.28;;;;;;;18.33;92.99;97985.09;5047592;28;20033;-75
2023/07/29 05:22:22;;;;;;;3.80;3.50;;;;;;;18.32;93.43;97980.81;5054217;28;20029;-76
2023/07/29 05:24:47;;;;;;;4.57;3.28;;;;;;;18.38;92.54;97983.03;5050016;28;20029;-76
2023/07/29 05:27:13;;;;;;;5.40;3.53;;;;;;;18.34;93.07;97978.59;5051548;28;20036;-76
2023/07/29 05:29:38;;;;;;;5.80;3.83;;;;;;;18.27;94.01;97975.56;5050688;28;20032;-77
2023/07/29 05:32:04;;;;;;;4.75;3.40;;;;;;;18.21;94.27;97966.06;5043799;28;20044;-77
2023/07/29 05:34:29;;;;;;;5.10;3.50;;;;;;;18.35;93.13;97975.56;5049604;28;20033;-76
2023/07/29 05:36:55;;;;;;;4.22;3.35;;;;;;;18.36;92.99;97963.66;5049144;28;20044;-77
2023/07/29 05:39:20;;;;;;;4.53;4.07;;;;;;;18.37;93.31;97970.63;5053786;28;20055;-77
2023/07/29 05:41:46;;;;;;;3.20;2.95;;;;;;;18.49;92.84;97976.22;5053382;28;20037;-76
2023/07/29 05:44:11;;;;;;;4.25;3.85;;;;;;;18.42;93.25;97975.88;5046988;28;20037;-77
2023/07/29 05:46:37;;;;;;;3.78;3.38;;;;;;;18.45;93.00;97972.56;5033811;28;22013;-76
2023/07/29 05:49:02;;;;;;;4.22;3.17;;;;;;;18.40;93.38;97967.31;5041039;28;20088;-76
2023/07/29 05:51:28;;;;;;;3.55;3.25;;;;;;;18.46;93.14;97966.03;5053293;28;20073;-76
2023/07/29 05:53:53;;;;;;;7.00;3.58;;;;;;;18.38;93.87;97976.84;5044072;28;20490;-77
2023/07/29 05:56:18;;;;;;;3.88;3.17;;;;;;;18.52;93.30;97972.88;5051285;28;20029;-78
2023/07/29 05:58:44;;;;;;;4.85;3.53;;;;;;;18.40;94.02;97975.41;5050935;28;20037;-76
2023/07/29 06:01:09;;;;;;;3.88;3.58;;;;;;;18.49;93.48;97972.72;5050900;28;20082;-77
2023/07/29 06:03:34;;;;;;;3.75;3.20;;;;;;;18.46;93.29;97967.94;5045463;28;20033;-77
2023/07/29 06:06:00;;;;;;;3.72;3.42;;;;;;;18.52;92.94;97966.69;5050116;28;20112;-78
2023/07/29 06:08:28;;;;;;;4.38;3.97;;;;;;;18.47;93.37;97964.16;5035495;28;20482;-76
2023/07/29 06:10:53;;;;;;;3.88;3.40;;;;;;;18.57;93.16;97959.19;5049704;28;20651;-76
2023/07/29 06:13:19;;;;;;;3.63;3.33;;;;;;;18.62;92.91;97971.75;5052953;28;20041;-77
2023/07/29 06:15:44;;;;;;;3.78;3.30;;;;;;;18.69;92.78;97974.75;5047899;28;20043;-77
2023/07/29 06:18:09;;;;;;;7.35;3.58;;;;;;;18.61;93.20;97978.25;5049792;28;20033;-75
2023/07/29 06:20:35;;;;;;;4.53;4.07;;;;;;;18.64;93.02;97974.91;5051111;28;20039;-77
2023/07/29 06:23:01;;;;;;;4.05;3.50;;;;;;;18.61;93.44;97975.53;5047371;28;20064;-77
2023/07/29 06:25:27;;;;;;;4.47;3.40;;;;;;;18.64;93.69;97964.09;5045449;28;20029;-76
2023/07/29 06:27:52;;;;;;;3.40;3.20;;;;;;;18.68;93.04;97963.13;5048540;28;20025;-76
2023/07/29 06:30:18;;;;;;;4.10;3.80;;;;;;;18.59;93.92;97975.88;5051607;28;20033;-75
2023/07/29 06:32:43;;;;;;;4.15;3.80;;;;;;;18.67;93.43;97979.69;5051738;28;20037;-77
2023/07/29 06:35:08;;;;;;;4.32;3.92;;;;;;;18.65;92.94;97971.88;5049543;28;20039;-76
2023/07/29 06:37:34;;;;;;;4.38;4.07;;;;;;;18.64;93.66;97972.22;5049223;28;20100;-76
2023/07/29 06:39:59;;;;;;;3.90;3.60;;;;;;;18.74;92.58;97979.19;5052396;28;20090;-78
2023/07/29 06:42:24;;;;;;;7.05;4.18;;;;;;;18.65;93.38;97988.09;5048092;28;20505;-76
2023/07/29 06:44:50;;;;;;;4.38;3.95;;;;;;;18.69;92.94;97977.47;5042922;28;20057;-78
2023/07/29 06:47:15;;;;;;;5.95;3.63;;;;;;;18.77;92.37;97982.03;5042599;28;20102;-75
2023/07/29 06:49:41;;;;;;;4.05;3.72;;;;;;;18.73;93.11;97978.41;5036932;28;20041;-76
2023/07/29 06:52:06;;;;;;;4.28;3.97;;;;;;;18.67;93.03;97975.06;5043090;28;20085;-77
2023/07/29 06:54:31;;;;;;;7.70;4.82;;;;;;;18.71;93.21;97975.22;5045854;28;20037;-77
2023/07/29 06:56:57;;;;;;;5.63;5.22;;;;;;;18.80;94.05;97972.50;5035649;28;20029;-77
2023/07/29 06:59:24;;;;;;;4.78;4.38;;;;;;;18.84;95.28;97968.03;5037361;28;20037;-77
2023/07/29 07:01:49;;;;;;;5.85;5.35;;;;;;;18.97;95.74;97977.84;5040625;28;20389;-76
2023/07/29 07:04:15;;;;;;;6.00;5.50;;;;;;;19.06;94.55;97976.69;5044575;28;20044;-76
2023/07/29 07:06:40;;;;;;;6.55;5.07;;;;;;;19.06;94.17;97965.88;5025717;28;20043;-76
2023/07/29 07:09:06;;;;;;;4.60;4.20;;;;;;;19.24;93.54;97966.59;5046197;28;20544;-76
2023/07/29 07:11:31;;;;;;;6.00;5.40;;;;;;;19.22;93.68;97971.53;5046203;28;20610;-77
2023/07/29 07:13:57;;;;;;;5.43;4.88;;;;;;;19.16;94.13;97968.22;5048216;28;20432;-77
2023/07/29 07:16:22;;;;;;;5.95;5.22;;;;;;;19.12;93.53;97974.59;5047689;28;20029;-76
2023/07/29 07:18:47;;;;;;;6.07;5.22;;;;;;;19.00;94.76;97967.16;5048448;28;20033;-75
2023/07/29 07:21:13;;;;;;;6.38;5.78;;;;;;;19.11;94.51;97971.09;5042005;28;20041;-76
2023/07/29 07:23:41;;;;;;;9.60;6.00;;;;;;;19.22;93.63;97968.84;5042901;28;20025;-77
2023/07/29 07:26:06;;;;;;;6.05;5.22;;;;;;;19.27;93.53;97965.94;5045033;28;20034;-77
2023/07/29 07:28:32;;;;;;;9.15;5.55;;;;;;;19.31;93.13;97974.97;5045097;28;20079;-76
2023/07/29 07:30:57;;;;;;;6.03;5.00;;;;;;;19.30;92.66;97978.81;5045572;28;20033;-76
2023/07/29 07:33:23;;;;;;;6.55;6.05;;;;;;;19.37;92.41;97981.84;5045748;28;20041;-76
2023/07/29 07:35:48;;;;;;;5.68;4.88;;;;;;;19.18;92.49;97984.91;5048444;28;20108;-74
2023/07/29 07:38:13;;;;;;;6.32;5.72;;;;;;;19.16;93.33;97975.53;5045062;28;20124;-76
2023/07/29 07:40:39;;;;;;;5.40;4.90;;;;;;;19.23;93.30;97984.75;5047640;28;20393;-76
2023/07/29 07:43:04;;;;;;;5.53;5.03;;;;;;;19.31;91.98;97983.09;5023725;28;20029;-75
2023/07/29 07:45:29;;;;;;;6.47;5.40;;;;;;;19.25;92.69;97968.16;5038100;28;20033;-75
2023/07/29 07:47:56;;;;;;;5.97;5.43;;;;;;;19.26;93.13;97962.41;5039350;28;20033;-76
2023/07/29 07:50:21;;;;;;;5.70;5.18;;;;;;;19.31;92.89;97975.78;5049384;28;20044;-77
2023/07/29 07:52:46;;;;;;;6.35;5.80;;;;;;;19.32;92.91;97977.38;5046074;28;20024;-76
2023/07/29 07:55:12;;;;;;;6.15;5.57;;;;;;;19.26;93.79;97969.78;5045586;28;20394;-75
2023/07/29 07:57:37;;;;;;;5.70;5.20;;;;;;;19.19;93.75;97969.47;5045386;28;20393;-76
2023/07/29 08:00:04;;;;;;;6.07;5.57;;;;;;;19.30;92.58;97965.28;5036346;28;20025;-76
2023/07/29 08:02:30;;;;;;;5.63;5.07;;;;;;;19.33;92.64;97984.34;5043645;28;20063;-74
2023/07/29 08:04:55;;;;;;;5.40;4.93;;;;;;;19.23;92.58;97981.22;5035436;28;20044;-75
2023/07/29 08:07:21;;;;;;;7.53;5.50;;;;;;;19.27;92.45;97987.56;5044257;28;20080;-75
2023/07/29 08:09:47;;;;;;;5.35;4.85;;;;;;;19.30;92.15;97986.94;5050877;28;20430;-76
2023/07/29 08:12:12;;;;;;;5.80;5.28;;;;;;;19.22;92.73;97983.13;5045899;28;20059;-77
2023/07/29 08:14:38;;;;;;;5.95;5.35;;;;;;;19.27;92.49;97976.75;5045606;28;20448;-75
2023/07/29 08:17:03;;;;;;;5.70;5.30;;;;;;;19.30;91.85;97985.03;5036883;28;20029;-76
2023/07/29 08:19:29;;;;;;;5.03;4.60;;;;;;;19.27;91.49;97977.56;5045742;28;20044;-75
2023/07/29 08:21:54;;;;;;;6.30;4.93;;;;;;;19.29;91.99;97983.44;5049959;28;20024;-77
2023/07/29 08:24:20;;;;;;;5.57;5.07;;;;;;;19.32;92.60;97971.16;5047962;28;20040;-76
2023/07/29 08:26:45;;;;;;;5.75;5.22;;;;;;;19.31;92.45;97970.38;5045504;28;20052;-76
2023/07/29 08:29:12;;;;;;;5.10;4.60;;;;;;;19.36;91.95;97974.84;5045634;28;20041;-77
2023/07/29 08:31:37;;;;;;;5.18;4.55;;;;;;;19.34;92.38;97972.47;5047190;28;20037;-77
2023/07/29 08:34:02;;;;;;;5.18;4.75;;;;;;;19.33;92.10;97975.47;5042031;28;20035;-77
2023/07/29 08:36:28;;;;;;;4.88;4.47;;;;;;;19.38;92.01;97967.97;5029227;28;20059;-76
2023/07/29 08:38:53;;;;;;;4.90;4.43;;;;;;;19.45;92.17;97962.06;5043264;28;20041;-77
2023/07/29 08:41:22;;;;;;;4.88;4.50;;;;;;;19.47;91.56;97956.31;5036116;28;20734;-76
2023/07/29 08:43:56;;;;;;;5.35;4.95;;;;;;;19.49;91.65;97968.38;5037143;28;20371;-76
2023/07/29 08:46:21;;;;;;;5.00;4.50;;;;;;;19.55;91.66;97969.78;5041027;28;20039;-75
2023/07/29 08:48:47;;;;;;;5.68;5.18;;;;;;;19.57;92.37;97969.47;5044460;28;20107;-75
2023/07/29 08:51:12;;;;;;;4.93;3.80;;;;;;;19.60;91.81;97969.59;5035312;28;20486;-75
2023/07/29 08:53:39;;;;;;;4.75;4.35;;;;;;;19.63;90.89;97965.44;5038190;28;20434;-75
2023/07/29 08:56:05;;;;;;;7.07;4.45;;;;;;;19.70;90.80;97973.84;5041226;28;20048;-75
2023/07/29 08:58:31;;;;;;;4.57;4.28;;;;;;;19.67;90.89;97969.09;5046045;28;20094;-75
2023/07/29 09:00:57;;;;;;;5.90;4.38;;;;;;;19.66;91.06;97967.50;5039708;28;20359;-76
2023/07/29 09:03:23;;;;;;;5.00;4.60;;;;;;;19.55;91.02;97972.50;5043887;28;20123;-76
2023/07/29 09:05:48;;;;;;;4.35;4.05;;;;;;;19.54;90.73;97968.22;5045962;28;20032;-75
2023/07/29 09:08:14;;;;;;;4.43;4.03;;;;;;;19.46;90.72;97971.78;5047241;28;20490;-76
2023/07/29 09:10:40;;;;;;;7.28;4.43;;;;;;;19.55;90.69;97971.72;5049535;28;20516;-76
2023/07/29 09:13:06;;;;;;;4.50;4.10;;;;;;;19.54;90.82;97983.66;5046166;28;20032;-76
2023/07/29 09:15:34;;;;;;;8.48;4.55;;;;;;;19.59;91.17;97978.06;5046678;28;20513;-76
2023/07/29 09:18:09;;;;;;;4.47;4.07;;;;;;;19.68;91.12;97976.09;5024554;28;20131;-76
2023/07/29 09:20:34;;;;;;;5.63;3.85;;;;;;;19.74;89.78;97982.91;5040074;28;20550;-75
2023/07/29 09:23:00;;;;;;;3.97;3.67;;;;;;;19.75;89.60;97990.69;5037143;28;20033;-75
2023/07/29 09:25:27;;;;;;;6.53;4.65;;;;;;;19.77;89.60;97990.34;5050116;28;20025;-75
2023/07/29 09:27:58;;;;;;;4.43;4.10;;;;;;;19.71;89.93;97983.53;5044156;28;20071;-75
2023/07/29 09:30:24;;;;;;;165.00;18.70;;;;;;;19.76;88.90;97981.44;5043437;28;20588;-76
2023/07/29 09:32:55;;;;;;;25.13;5.35;;;;;;;19.90;89.20;97975.75;5049473;28;20116;-75
2023/07/29 09:35:20;;;;;;;13.00;4.70;;;;;;;19.76;88.31;97972.53;5044236;28;20094;-74
2023/07/29 09:37:46;;;;;;;6.57;3.85;;;;;;;19.88;88.54;97981.50;5045453;28;20025;-74
2023/07/29 09:40:15;;;;;;;4.75;4.10;;;;;;;20.05;88.04;97977.91;5046053;28;20034;-75
2023/07/29 09:42:47;;;;;;;11.13;3.78;;;;;;;20.23;88.30;97984.78;5039311;28;20040;-76
2023/07/29 09:45:19;;;;;;;289.30;31.02;;;;;;;20.16;87.54;97976.34;5043732;28;20040;-75
2023/07/29 09:47:46;;;;;;;33.53;6.55;;;;;;;20.25;86.79;97977.09;5044347;28;20032;-74
2023/07/29 09:50:11;;;;;;;14.40;4.70;;;;;;;20.22;86.94;97969.66;5048530;28;20131;-75
2023/07/29 09:52:37;;;;;;;4.88;3.90;;;;;;;20.27;87.45;97982.97;5045728;28;20103;-74
2023/07/29 09:55:02;;;;;;;3.80;3.45;;;;;;;20.44;87.72;97966.59;5048747;28;20401;-75
2023/07/29 09:57:28;;;;;;;5.82;4.32;;;;;;;20.62;87.04;97978.81;5045961;28;20133;-74
2023/07/29 09:59:55;;;;;;;3.40;3.00;;;;;;;20.65;83.78;97974.66;5046563;28;20064;-74
2023/07/29 10:02:21;;;;;;;6.57;3.55;;;;;;;20.89;84.20;97956.53;5041876;28;20517;-74
2023/07/29 10:04:46;;;;;;;4.95;3.13;;;;;;;21.01;83.39;97954.94;5048723;28;20067;-75
2023/07/29 10:07:14;;;;;;;3.58;3.30;;;;;;;21.22;83.83;97958.38;5047319;28;20020;-75
2023/07/29 10:09:39;;;;;;;3.83;3.45;;;;;;;21.39;81.05;97958.94;5045468;28;20053;-75
2023/07/29 10:12:11;;;;;;;3.55;3.28;;;;;;;21.21;80.86;97967.66;5045498;28;20064;-75
2023/07/29 10:14:38;;;;;;;228.52;25.83;;;;;;;21.27;80.27;97969.03;5042541;28;20025;-75
2023/07/29 10:17:05;;;;;;;63.88;8.55;;;;;;;21.18;80.43;97971.06;5034643;28;20031;-76
2023/07/29 10:19:31;;;;;;;16.55;5.32;;;;;;;21.12;80.74;97965.03;5043246;28;20032;-75
2023/07/29 10:21:59;;;;;;;6.70;3.90;;;;;;;21.08;80.83;97968.78;5047100;28;20025;-74
2023/07/29 10:24:30;;;;;;;4.32;3.75;;;;;;;21.09;82.01;97959.50;5043698;28;20493;-76
2023/07/29 10:27:00;;;;;;;6.10;3.92;;;;;;;21.44;80.41;97960.63;5046399;28;20100;-75
2023/07/29 10:29:34;;;;;;;8.93;3.60;;;;;;;21.34;82.13;97955.69;5045435;28;21872;-75
2023/07/29 10:32:03;;;;;;;3.88;3.58;;;;;;;21.57;79.76;97954.06;5047492;28;20075;-75
2023/07/29 10:34:30;;;;;;;4.40;3.72;;;;;;;21.40;78.13;97949.69;5045329;28;20035;-76
2023/07/29 10:36:56;;;;;;;5.70;3.85;;;;;;;21.65;76.92;97940.34;5047034;28;20064;-76
2023/07/29 10:39:21;;;;;;;4.97;4.50;;;;;;;21.69;76.78;97948.59;5041193;28;20493;-75
2023/07/29 10:42:00;;;;;;;3.88;3.58;;;;;;;21.79;75.70;97948.16;5046775;28;20029;-76
2023/07/29 10:44:49;;;;;;;4.13;3.70;;;;;;;21.90;75.98;97956.63;5043169;28;20111;-76
2023/07/29 10:47:20;;;;;;;4.25;3.85;;;;;;;21.92;75.49;97949.72;5041214;28;20389;-76
2023/07/29 10:49:51;;;;;;;7.00;4.80;;;;;;;21.71;75.84;97959.91;5042834;28;20033;-77
2023/07/29 10:52:36;;;;;;;8.40;4.30;;;;;;;21.60;76.28;97958.81;5047195;28;20039;-75
2023/07/29 10:55:03;;;;;;;6.03;3.85;;;;;;;21.74;76.36;97955.72;5041546;28;20033;-74
2023/07/29 10:57:33;;;;;;;4.20;3.70;;;;;;;21.84;76.14;97956.06;5036758;28;20079;-75
2023/07/29 10:59:59;;;;;;;35.40;6.45;;;;;;;22.15;77.88;97948.06;5044892;28;20056;-76
2023/07/29 11:02:34;;;;;;;4.88;3.85;;;;;;;22.41;75.51;97944.13;5042872;28;20104;-75
2023/07/29 11:05:15;;;;;;;6.75;4.10;;;;;;;22.29;74.80;97951.19;5046736;28;20115;-75
2023/07/29 11:07:45;;;;;;;4.90;4.40;;;;;;;22.21;74.95;97956.78;5040262;28;20036;-75
2023/07/29 11:10:12;;;;;;;4.43;4.07;;;;;;;22.21;74.27;97952.09;5042367;28;20042;-74
2023/07/29 11:12:48;;;;;;;5.97;4.25;;;;;;;22.38;73.76;97945.59;5040423;28;20033;-74
2023/07/29 11:15:27;;;;;;;88.03;12.50;;;;;;;22.59;72.84;97948.09;5045505;28;20491;-74
2023/07/29 11:17:58;;;;;;;19.70;5.35;;;;;;;22.61;74.97;97949.34;5042486;28;20028;-75
2023/07/29 11:20:31;;;;;;;7.28;4.88;;;;;;;22.45;73.53;97953.97;5045764;28;20512;-75
2023/07/29 11:22:58;;;;;;;5.05;3.97;;;;;;;22.55;72.84;97944.47;5044582;28;20385;-75
2023/07/29 11:25:26;;;;;;;4.72;3.72;;;;;;;22.53;72.51;97946.75;5047278;28;20559;-75
2023/07/29 11:27:53;;;;;;;4.95;4.32;;;;;;;22.74;71.20;97952.78;5042290;28;20485;-76
2023/07/29 11:30:18;;;;;;;4.82;4.35;;;;;;;22.69;71.33;97953.06;5039718;28;20040;-75